createdAt,value
2023-04-29T00:00:20.244Z,26.95
2023-04-29T00:01:20.145Z,26.95
2023-04-29T00:02:20.106Z,26.97
2023-04-29T00:03:20.048Z,26.97
2023-04-29T00:04:19.977Z,26.94
2023-04-29T00:05:19.901Z,26.97
2023-04-29T00:06:19.637Z,26.95
2023-04-29T00:07:19.494Z,26.95
2023-04-29T00:08:19.383Z,26.97
2023-04-29T00:09:19.287Z,26.97
2023-04-29T00:10:19.176Z,26.94
2023-04-29T00:11:19.105Z,26.94
2023-04-29T00:12:19.024Z,26.95
2023-04-29T00:13:18.945Z,26.94
2023-04-29T00:14:18.871Z,26.97
2023-04-29T00:15:18.799Z,26.95
2023-04-29T00:16:18.829Z,26.95
2023-04-29T00:17:18.697Z,26.95
2023-04-29T00:18:18.661Z,26.94
2023-04-29T00:19:18.569Z,26.92
2023-04-29T00:20:18.493Z,26.95
2023-04-29T00:21:18.413Z,26.94
2023-04-29T00:22:18.322Z,26.94
2023-04-29T00:23:18.278Z,26.95
2023-04-29T00:24:18.190Z,26.94
2023-04-29T00:25:18.093Z,26.95
2023-04-29T00:26:17.998Z,26.95
2023-04-29T00:27:17.906Z,26.95
2023-04-29T00:28:17.798Z,26.95
2023-04-29T00:29:17.675Z,26.95
2023-04-29T00:30:17.582Z,26.95
2023-04-29T00:31:17.523Z,26.91
2023-04-29T00:32:17.355Z,26.94
2023-04-29T00:33:17.241Z,26.97
2023-04-29T00:34:17.129Z,26.97
2023-04-29T00:35:17.042Z,26.94
2023-04-29T00:36:16.918Z,26.94
2023-04-29T00:37:16.798Z,26.95
2023-04-29T00:38:16.702Z,26.94
2023-04-29T00:39:16.615Z,26.94
2023-04-29T00:40:16.483Z,26.97
2023-04-29T00:41:16.368Z,26.94
2023-04-29T00:42:16.267Z,26.94
2023-04-29T00:43:16.158Z,26.95
2023-04-29T00:44:16.062Z,26.92
2023-04-29T00:45:15.968Z,26.94
2023-04-29T00:46:15.920Z,26.92
2023-04-29T00:47:15.825Z,26.95
2023-04-29T00:48:15.800Z,26.95
2023-04-29T00:49:15.681Z,26.92
2023-04-29T00:50:15.662Z,26.95
2023-04-29T00:51:15.572Z,26.92
2023-04-29T00:52:15.498Z,26.94
2023-04-29T00:53:15.407Z,26.97
2023-04-29T00:54:15.309Z,26.94
2023-04-29T00:55:15.194Z,26.92
2023-04-29T00:56:15.065Z,26.94
2023-04-29T00:57:14.949Z,26.94
2023-04-29T00:58:14.846Z,26.91
2023-04-29T00:59:14.734Z,26.94
2023-04-29T01:00:14.624Z,26.94
2023-04-29T01:01:14.607Z,26.94
2023-04-29T01:02:14.376Z,26.94
2023-04-29T01:03:14.388Z,26.92
2023-04-29T01:04:14.331Z,26.95
2023-04-29T01:05:14.078Z,26.92
2023-04-29T01:06:13.928Z,26.92
2023-04-29T01:07:13.818Z,26.97
2023-04-29T01:08:14.551Z,26.92
2023-04-29T01:09:13.586Z,26.95
2023-04-29T01:10:13.495Z,26.95
2023-04-29T01:11:13.377Z,26.94
2023-04-29T01:12:13.248Z,26.92
2023-04-29T01:13:13.145Z,26.91
2023-04-29T01:14:13.037Z,26.92
2023-04-29T01:15:12.929Z,26.94
2023-04-29T01:16:12.829Z,26.94
2023-04-29T01:17:12.704Z,26.94
2023-04-29T01:18:12.595Z,26.95
2023-04-29T01:19:12.482Z,26.92
2023-04-29T01:20:12.380Z,26.92
2023-04-29T01:21:12.273Z,26.94
2023-04-29T01:22:12.155Z,26.91
2023-04-29T01:23:12.040Z,26.92
2023-04-29T01:24:11.926Z,26.95
2023-04-29T01:25:11.825Z,26.94
2023-04-29T01:26:11.735Z,26.92
2023-04-29T01:27:11.670Z,26.95
2023-04-29T01:28:11.615Z,26.92
2023-04-29T01:29:11.541Z,26.94
2023-04-29T01:30:11.460Z,26.91
2023-04-29T01:31:11.508Z,26.94
2023-04-29T01:32:11.295Z,26.94
2023-04-29T01:33:11.249Z,26.95
2023-04-29T01:34:11.119Z,26.95
2023-04-29T01:35:11.025Z,26.94
2023-04-29T01:36:10.956Z,26.95
2023-04-29T01:37:10.809Z,26.95
2023-04-29T01:38:10.714Z,26.92
2023-04-29T01:39:10.620Z,26.94
2023-04-29T01:40:10.518Z,26.95
2023-04-29T01:41:10.440Z,26.94
2023-04-29T01:42:10.338Z,26.92
2023-04-29T01:43:10.223Z,26.94
2023-04-29T01:44:10.118Z,26.92
2023-04-29T01:45:10.025Z,26.94
2023-04-29T01:46:09.956Z,26.95
2023-04-29T01:47:09.830Z,26.94
2023-04-29T01:48:09.733Z,26.94
2023-04-29T01:49:09.645Z,26.92
2023-04-29T01:50:09.546Z,26.95
2023-04-29T01:51:09.453Z,26.91
2023-04-29T01:52:09.354Z,26.94
2023-04-29T01:53:09.248Z,26.94
2023-04-29T01:54:09.182Z,26.92
2023-04-29T01:55:09.079Z,26.94
2023-04-29T01:56:09.015Z,26.94
2023-04-29T01:57:08.914Z,26.94
2023-04-29T01:58:08.787Z,26.92
2023-04-29T01:59:08.698Z,26.92
2023-04-29T02:00:08.572Z,26.94
2023-04-29T02:01:08.485Z,26.91
2023-04-29T02:02:08.383Z,26.92
2023-04-29T02:03:08.418Z,26.95
2023-04-29T02:04:08.187Z,26.92
2023-04-29T02:05:08.069Z,26.92
2023-04-29T02:06:07.990Z,26.92
2023-04-29T02:07:07.834Z,26.92
2023-04-29T02:08:07.749Z,26.89
2023-04-29T02:09:07.638Z,26.91
2023-04-29T02:10:07.567Z,26.91
2023-04-29T02:11:07.470Z,26.91
2023-04-29T02:12:07.372Z,26.91
2023-04-29T02:13:07.255Z,26.89
2023-04-29T02:14:07.155Z,26.89
2023-04-29T02:15:07.106Z,26.91
2023-04-29T02:16:07.035Z,26.92
2023-04-29T02:17:06.926Z,26.92
2023-04-29T02:18:06.966Z,26.92
2023-04-29T02:19:06.758Z,26.92
2023-04-29T02:20:06.687Z,26.91
2023-04-29T02:21:06.558Z,26.91
2023-04-29T02:22:06.465Z,26.94
2023-04-29T02:23:06.356Z,26.92
2023-04-29T02:24:06.236Z,26.91
2023-04-29T02:25:06.127Z,26.91
2023-04-29T02:26:06.023Z,26.94
2023-04-29T02:27:05.913Z,26.92
2023-04-29T02:28:05.784Z,26.91
2023-04-29T02:29:05.669Z,26.91
2023-04-29T02:30:05.570Z,26.91
2023-04-29T02:31:05.510Z,26.94
2023-04-29T02:32:05.402Z,26.92
2023-04-29T02:33:07.728Z,26.91
2023-04-29T02:34:05.122Z,26.92
2023-04-29T02:35:04.991Z,26.91
2023-04-29T02:36:04.880Z,26.92
2023-04-29T02:37:04.809Z,26.91
2023-04-29T02:38:04.658Z,26.92
2023-04-29T02:39:04.564Z,26.91
2023-04-29T02:40:04.433Z,26.91
2023-04-29T02:41:04.335Z,26.91
2023-04-29T02:42:04.246Z,26.92
2023-04-29T02:43:04.092Z,26.89
2023-04-29T02:44:03.989Z,26.91
2023-04-29T02:45:03.886Z,26.92
2023-04-29T02:46:03.804Z,26.92
2023-04-29T02:47:03.669Z,26.89
2023-04-29T02:48:03.621Z,26.91
2023-04-29T02:49:03.465Z,26.91
2023-04-29T02:50:03.332Z,26.89
2023-04-29T02:51:03.250Z,26.87
2023-04-29T02:52:03.146Z,26.87
2023-04-29T02:53:03.015Z,26.85
2023-04-29T02:54:02.913Z,26.82
2023-04-29T02:55:02.837Z,26.80
2023-04-29T02:56:02.723Z,26.78
2023-04-29T02:57:02.624Z,26.75
2023-04-29T02:58:02.509Z,26.73
2023-04-29T02:59:02.396Z,26.70
2023-04-29T03:00:02.336Z,26.68
2023-04-29T03:01:02.194Z,26.64
2023-04-29T03:02:02.092Z,26.60
2023-04-29T03:03:02.228Z,26.58
2023-04-29T03:04:02.162Z,26.57
2023-04-29T03:05:01.768Z,26.53
2023-04-29T03:06:01.662Z,26.50
2023-04-29T03:07:01.573Z,26.48
2023-04-29T03:08:01.481Z,26.46
2023-04-29T03:09:01.365Z,26.43
2023-04-29T03:10:01.261Z,26.40
2023-04-29T03:11:01.149Z,26.40
2023-04-29T03:12:01.075Z,26.39
2023-04-29T03:13:00.951Z,26.35
2023-04-29T03:14:00.858Z,26.33
2023-04-29T03:15:00.765Z,26.32
2023-04-29T03:16:00.665Z,26.30
2023-04-29T03:17:00.676Z,26.29
2023-04-29T03:18:00.460Z,26.25
2023-04-29T03:19:00.337Z,26.23
2023-04-29T03:20:00.239Z,26.23
2023-04-29T03:21:00.193Z,26.23
2023-04-29T03:22:00.036Z,26.18
2023-04-29T03:22:59.920Z,26.19
2023-04-29T03:23:59.824Z,26.16
2023-04-29T03:24:59.729Z,26.16
2023-04-29T03:25:59.748Z,26.15
2023-04-29T03:26:59.652Z,26.13
2023-04-29T03:27:59.609Z,26.11
2023-04-29T03:28:59.572Z,26.09
2023-04-29T03:29:59.524Z,26.08
2023-04-29T03:30:59.480Z,26.09
2023-04-29T03:31:59.457Z,26.06
2023-04-29T03:32:59.450Z,26.06
2023-04-29T03:33:59.367Z,26.03
2023-04-29T03:34:59.275Z,26.01
2023-04-29T03:35:59.207Z,26.01
2023-04-29T03:36:59.246Z,25.99
2023-04-29T03:37:59.099Z,25.96
2023-04-29T03:38:59.027Z,25.98
2023-04-29T03:39:58.940Z,25.98
2023-04-29T03:40:58.809Z,25.95
2023-04-29T03:41:58.711Z,25.94
2023-04-29T03:42:58.602Z,25.92
2023-04-29T03:43:58.513Z,25.91
2023-04-29T03:44:58.413Z,25.89
2023-04-29T03:45:58.370Z,25.89
2023-04-29T03:46:58.226Z,25.89
2023-04-29T03:47:58.133Z,25.87
2023-04-29T03:48:58.057Z,25.87
2023-04-29T03:49:57.973Z,25.85
2023-04-29T03:50:57.925Z,25.83
2023-04-29T03:51:57.836Z,25.87
2023-04-29T03:52:57.764Z,25.83
2023-04-29T03:53:57.625Z,25.83
2023-04-29T03:54:57.524Z,25.83
2023-04-29T03:55:57.419Z,25.83
2023-04-29T03:56:57.375Z,25.81
2023-04-29T03:57:57.230Z,25.80
2023-04-29T03:58:57.118Z,25.80
2023-04-29T03:59:57.023Z,25.78
2023-04-29T04:00:56.926Z,25.78
2023-04-29T04:01:56.885Z,25.80
2023-04-29T04:02:56.839Z,25.75
2023-04-29T04:03:56.866Z,25.75
2023-04-29T04:04:56.606Z,25.74
2023-04-29T04:05:56.536Z,25.74
2023-04-29T04:06:56.455Z,25.75
2023-04-29T04:07:56.373Z,25.73
2023-04-29T04:08:56.246Z,25.73
2023-04-29T04:09:56.148Z,25.71
2023-04-29T04:10:56.055Z,25.73
2023-04-29T04:11:56.089Z,25.70
2023-04-29T04:12:56.086Z,25.70
2023-04-29T04:13:55.989Z,25.68
2023-04-29T04:14:55.894Z,25.70
2023-04-29T04:15:55.860Z,25.67
2023-04-29T04:16:55.745Z,25.67
2023-04-29T04:17:55.670Z,25.66
2023-04-29T04:18:55.632Z,25.68
2023-04-29T04:19:55.527Z,25.66
2023-04-29T04:20:55.430Z,25.63
2023-04-29T04:21:55.340Z,25.64
2023-04-29T04:22:55.265Z,25.63
2023-04-29T04:23:55.179Z,25.63
2023-04-29T04:24:55.155Z,25.63
2023-04-29T04:25:55.170Z,25.63
2023-04-29T04:26:55.101Z,25.60
2023-04-29T04:27:55.006Z,25.63
2023-04-29T04:28:54.929Z,25.60
2023-04-29T04:29:54.822Z,25.58
2023-04-29T04:30:54.750Z,25.58
2023-04-29T04:31:54.786Z,25.60
2023-04-29T04:32:54.822Z,25.58
2023-04-29T04:33:54.768Z,25.58
2023-04-29T04:34:54.778Z,25.58
2023-04-29T04:35:54.690Z,25.56
2023-04-29T04:36:54.629Z,25.57
2023-04-29T04:37:54.530Z,25.56
2023-04-29T04:38:54.431Z,25.56
2023-04-29T04:39:54.594Z,25.56
2023-04-29T04:40:54.312Z,25.54
2023-04-29T04:41:54.272Z,25.53
2023-04-29T04:42:55.237Z,25.56
2023-04-29T04:43:54.082Z,25.54
2023-04-29T04:44:54.009Z,25.53
2023-04-29T04:45:53.952Z,25.54
2023-04-29T04:46:53.827Z,25.50
2023-04-29T04:47:53.766Z,25.53
2023-04-29T04:48:53.611Z,25.51
2023-04-29T04:49:53.773Z,25.51
2023-04-29T04:50:53.423Z,25.53
2023-04-29T04:51:53.314Z,25.50
2023-04-29T04:52:53.221Z,25.50
2023-04-29T04:53:53.135Z,25.50
2023-04-29T04:54:53.015Z,25.50
2023-04-29T04:55:52.933Z,25.51
2023-04-29T04:56:52.837Z,25.49
2023-04-29T04:57:52.741Z,25.50
2023-04-29T04:58:52.687Z,25.49
2023-04-29T04:59:52.722Z,25.47
2023-04-29T05:00:52.467Z,25.46
2023-04-29T05:01:52.358Z,25.46
2023-04-29T05:02:52.374Z,25.47
2023-04-29T05:03:52.209Z,25.47
2023-04-29T05:04:52.091Z,25.46
2023-04-29T05:05:51.992Z,25.49
2023-04-29T05:06:51.890Z,25.46
2023-04-29T05:07:51.814Z,25.44
2023-04-29T05:08:51.696Z,25.44
2023-04-29T05:09:51.802Z,25.47
2023-04-29T05:10:51.608Z,25.44
2023-04-29T05:11:51.609Z,25.44
2023-04-29T05:12:51.625Z,25.46
2023-04-29T05:13:51.520Z,25.46
2023-04-29T05:14:51.444Z,25.44
2023-04-29T05:15:51.370Z,25.47
2023-04-29T05:16:51.338Z,25.44
2023-04-29T05:17:51.274Z,25.43
2023-04-29T05:18:51.206Z,25.43
2023-04-29T05:19:51.271Z,25.43
2023-04-29T05:20:51.045Z,25.44
2023-04-29T05:21:50.962Z,25.44
2023-04-29T05:22:50.954Z,25.41
2023-04-29T05:23:50.876Z,25.43
2023-04-29T05:24:50.796Z,25.41
2023-04-29T05:25:50.735Z,25.41
2023-04-29T05:26:50.665Z,25.43
2023-04-29T05:27:50.594Z,25.41
2023-04-29T05:28:50.525Z,25.40
2023-04-29T05:29:50.675Z,25.41
2023-04-29T05:30:50.430Z,25.40
2023-04-29T05:31:50.320Z,25.39
2023-04-29T05:32:50.332Z,25.40
2023-04-29T05:33:50.190Z,25.40
2023-04-29T05:34:50.130Z,25.39
2023-04-29T05:35:50.039Z,25.40
2023-04-29T05:36:49.985Z,25.39
2023-04-29T05:37:49.915Z,25.39
2023-04-29T05:38:49.838Z,25.37
2023-04-29T05:39:49.867Z,25.37
2023-04-29T05:40:49.726Z,25.37
2023-04-29T05:41:49.649Z,25.37
2023-04-29T05:42:49.604Z,25.39
2023-04-29T05:43:49.528Z,25.36
2023-04-29T05:44:49.465Z,25.39
2023-04-29T05:45:49.434Z,25.37
2023-04-29T05:46:49.350Z,25.39
2023-04-29T05:47:49.331Z,25.37
2023-04-29T05:48:49.197Z,25.36
2023-04-29T05:49:49.137Z,25.36
2023-04-29T05:50:49.059Z,25.36
2023-04-29T05:51:48.984Z,25.37
2023-04-29T05:52:48.927Z,25.34
2023-04-29T05:53:48.856Z,25.36
2023-04-29T05:54:48.784Z,25.41
2023-04-29T05:55:50.360Z,25.37
2023-04-29T05:56:48.672Z,25.39
2023-04-29T05:57:48.611Z,25.39
2023-04-29T05:58:48.528Z,25.39
2023-04-29T05:59:48.462Z,25.37
2023-04-29T06:00:48.389Z,25.36
2023-04-29T06:01:48.329Z,25.39
2023-04-29T06:02:58.029Z,25.40
2023-04-29T06:03:49.342Z,25.37
2023-04-29T06:04:48.223Z,25.40
2023-04-29T06:05:48.321Z,25.39
2023-04-29T06:06:47.882Z,25.37
2023-04-29T06:07:47.794Z,25.39
2023-04-29T06:08:47.691Z,25.39
2023-04-29T06:09:47.613Z,25.39
2023-04-29T06:10:47.498Z,25.37
2023-04-29T06:11:47.415Z,25.39
2023-04-29T06:12:47.312Z,25.36
2023-04-29T06:13:47.194Z,25.39
2023-04-29T06:14:47.098Z,25.40
2023-04-29T06:15:47.047Z,25.43
2023-04-29T06:16:46.921Z,25.39
2023-04-29T06:17:46.816Z,25.39
2023-04-29T06:18:46.700Z,25.37
2023-04-29T06:19:46.612Z,25.40
2023-04-29T06:20:46.510Z,25.41
2023-04-29T06:21:46.416Z,25.41
2023-04-29T06:22:46.308Z,25.43
2023-04-29T06:23:46.200Z,25.43
2023-04-29T06:24:46.107Z,25.44
2023-04-29T06:25:46.013Z,25.44
2023-04-29T06:26:45.915Z,25.44
2023-04-29T06:27:45.806Z,25.44
2023-04-29T06:28:45.727Z,25.43
2023-04-29T06:29:45.621Z,25.44
2023-04-29T06:30:45.525Z,25.46
2023-04-29T06:31:45.573Z,25.44
2023-04-29T06:32:45.410Z,25.44
2023-04-29T06:33:45.326Z,25.46
2023-04-29T06:34:45.248Z,25.49
2023-04-29T06:35:45.173Z,25.49
2023-04-29T06:36:45.132Z,25.46
2023-04-29T06:37:45.030Z,25.50
2023-04-29T06:38:44.949Z,25.49
2023-04-29T06:39:44.877Z,25.46
2023-04-29T06:40:44.805Z,25.51
2023-04-29T06:41:44.710Z,25.50
2023-04-29T06:42:44.653Z,25.50
2023-04-29T06:43:45.418Z,25.50
2023-04-29T06:44:44.485Z,25.53
2023-04-29T06:45:44.416Z,25.54
2023-04-29T06:46:44.370Z,25.56
2023-04-29T06:47:44.315Z,25.53
2023-04-29T06:48:44.135Z,25.56
2023-04-29T06:49:44.011Z,25.54
2023-04-29T06:50:43.909Z,25.56
2023-04-29T06:51:43.803Z,25.56
2023-04-29T06:52:43.704Z,25.58
2023-04-29T06:53:43.604Z,25.56
2023-04-29T06:54:43.501Z,25.58
2023-04-29T06:55:43.393Z,25.58
2023-04-29T06:56:43.287Z,25.64
2023-04-29T06:57:43.194Z,25.60
2023-04-29T06:58:43.077Z,25.63
2023-04-29T06:59:42.972Z,25.66
2023-04-29T07:00:42.932Z,25.66
2023-04-29T07:01:44.572Z,25.66
2023-04-29T07:02:42.988Z,25.66
2023-04-29T07:03:42.784Z,25.68
2023-04-29T07:04:42.610Z,25.68
2023-04-29T07:05:42.498Z,25.67
2023-04-29T07:06:42.413Z,25.68
2023-04-29T07:07:42.333Z,25.70
2023-04-29T07:08:42.233Z,25.71
2023-04-29T07:09:42.215Z,25.71
2023-04-29T07:10:42.132Z,25.73
2023-04-29T07:11:42.031Z,25.70
2023-04-29T07:12:41.949Z,25.70
2023-04-29T07:13:41.853Z,25.73
2023-04-29T07:14:41.767Z,25.74
2023-04-29T07:15:41.656Z,25.70
2023-04-29T07:16:41.617Z,25.74
2023-04-29T07:17:41.516Z,25.74
2023-04-29T07:18:41.359Z,25.73
2023-04-29T07:19:41.255Z,25.77
2023-04-29T07:20:41.154Z,25.75
2023-04-29T07:21:41.070Z,25.80
2023-04-29T07:22:40.979Z,25.77
2023-04-29T07:23:40.848Z,25.77
2023-04-29T07:24:40.751Z,25.80
2023-04-29T07:25:40.737Z,25.77
2023-04-29T07:26:40.780Z,25.83
2023-04-29T07:27:40.699Z,25.85
2023-04-29T07:28:40.583Z,25.84
2023-04-29T07:29:40.556Z,25.88
2023-04-29T07:30:40.568Z,25.85
2023-04-29T07:31:40.403Z,25.88
2023-04-29T07:32:40.330Z,25.88
2023-04-29T07:33:40.246Z,25.94
2023-04-29T07:34:40.195Z,25.92
2023-04-29T07:35:40.167Z,25.95
2023-04-29T07:36:40.132Z,25.96
2023-04-29T07:37:41.529Z,25.98
2023-04-29T07:38:40.176Z,25.99
2023-04-29T07:39:40.130Z,25.99
2023-04-29T07:40:40.048Z,26.01
2023-04-29T07:41:39.971Z,26.02
2023-04-29T07:42:39.942Z,26.02
2023-04-29T07:43:42.203Z,26.06
2023-04-29T07:44:39.937Z,26.08
2023-04-29T07:45:39.906Z,26.09
2023-04-29T07:46:39.940Z,26.09
2023-04-29T07:47:39.888Z,26.11
2023-04-29T07:48:39.808Z,26.09
2023-04-29T07:49:39.758Z,26.11
2023-04-29T07:50:39.735Z,26.12
2023-04-29T07:51:39.696Z,26.13
2023-04-29T07:52:39.703Z,26.19
2023-04-29T07:53:39.625Z,26.19
2023-04-29T07:54:39.571Z,26.20
2023-04-29T07:55:39.527Z,26.19
2023-04-29T07:56:39.477Z,26.20
2023-04-29T07:57:39.464Z,26.22
2023-04-29T07:58:39.413Z,26.23
2023-04-29T07:59:39.379Z,26.25
2023-04-29T08:00:39.338Z,26.29
2023-04-29T08:01:39.285Z,26.29
2023-04-29T08:02:39.364Z,26.32
2023-04-29T08:03:41.622Z,26.32
2023-04-29T08:04:39.172Z,26.35
2023-04-29T08:05:39.105Z,26.36
2023-04-29T08:06:38.869Z,26.36
2023-04-29T08:07:38.780Z,26.40
2023-04-29T08:08:38.666Z,26.40
2023-04-29T08:09:38.552Z,26.43
2023-04-29T08:10:38.460Z,26.43
2023-04-29T08:11:38.357Z,26.44
2023-04-29T08:12:38.254Z,26.47
2023-04-29T08:13:38.446Z,26.48
2023-04-29T08:14:38.039Z,26.50
2023-04-29T08:15:37.992Z,26.50
2023-04-29T08:16:37.886Z,26.51
2023-04-29T08:17:37.744Z,26.53
2023-04-29T08:18:37.609Z,26.54
2023-04-29T08:19:37.500Z,26.54
2023-04-29T08:20:37.395Z,26.57
2023-04-29T08:21:37.292Z,26.57
2023-04-29T08:22:37.202Z,26.58
2023-04-29T08:23:37.077Z,26.57
2023-04-29T08:24:36.994Z,26.60
2023-04-29T08:25:36.861Z,26.61
2023-04-29T08:26:36.760Z,26.63
2023-04-29T08:27:36.673Z,26.64
2023-04-29T08:28:36.564Z,26.65
2023-04-29T08:29:36.439Z,26.67
2023-04-29T08:30:36.341Z,26.67
2023-04-29T08:31:36.299Z,26.70
2023-04-29T08:32:36.154Z,26.71
2023-04-29T08:33:36.044Z,26.71
2023-04-29T08:34:35.933Z,26.73
2023-04-29T08:35:35.847Z,26.73
2023-04-29T08:36:35.736Z,26.74
2023-04-29T08:37:35.612Z,26.77
2023-04-29T08:38:35.501Z,26.77
2023-04-29T08:39:35.417Z,26.77
2023-04-29T08:40:35.305Z,26.77
2023-04-29T08:41:35.195Z,26.75
2023-04-29T08:42:35.100Z,26.78
2023-04-29T08:43:34.985Z,26.78
2023-04-29T08:44:34.885Z,26.82
2023-04-29T08:45:34.828Z,26.80
2023-04-29T08:46:34.677Z,26.81
2023-04-29T08:47:34.676Z,26.77
2023-04-29T08:48:34.585Z,26.78
2023-04-29T08:49:34.366Z,26.81
2023-04-29T08:50:34.263Z,26.82
2023-04-29T08:51:34.155Z,26.84
2023-04-29T08:52:34.057Z,26.81
2023-04-29T08:53:33.953Z,26.81
2023-04-29T08:54:33.839Z,26.84
2023-04-29T08:55:33.737Z,26.81
2023-04-29T08:56:33.641Z,26.82
2023-04-29T08:57:33.521Z,26.84
2023-04-29T08:58:33.416Z,26.82
2023-04-29T08:59:33.310Z,26.80
2023-04-29T09:00:33.191Z,26.78
2023-04-29T09:01:33.162Z,26.78
2023-04-29T09:02:33.068Z,26.80
2023-04-29T09:03:32.959Z,26.77
2023-04-29T09:04:32.795Z,26.77
2023-04-29T09:05:32.669Z,26.75
2023-04-29T09:06:32.570Z,26.77
2023-04-29T09:07:32.456Z,26.74
2023-04-29T09:08:32.357Z,26.74
2023-04-29T09:09:32.252Z,26.74
2023-04-29T09:10:32.158Z,26.74
2023-04-29T09:11:32.065Z,26.71
2023-04-29T09:12:32.001Z,26.73
2023-04-29T09:13:31.937Z,26.71
2023-04-29T09:14:31.856Z,26.73
2023-04-29T09:15:31.808Z,26.74
2023-04-29T09:16:31.747Z,26.78
2023-04-29T09:17:31.693Z,26.77
2023-04-29T09:18:31.584Z,26.78
2023-04-29T09:19:31.508Z,26.82
2023-04-29T09:20:31.465Z,26.84
2023-04-29T09:21:31.366Z,26.88
2023-04-29T09:22:31.290Z,26.89
2023-04-29T09:23:31.215Z,26.91
2023-04-29T09:24:31.148Z,26.92
2023-04-29T09:25:31.067Z,26.95
2023-04-29T09:26:30.975Z,26.97
2023-04-29T09:27:30.898Z,27.01
2023-04-29T09:28:30.811Z,27.03
2023-04-29T09:29:30.709Z,27.08
2023-04-29T09:30:30.628Z,27.08
2023-04-29T09:31:30.551Z,27.15
2023-04-29T09:32:30.432Z,27.12
2023-04-29T09:33:30.341Z,27.22
2023-04-29T09:34:30.233Z,27.19
2023-04-29T09:35:30.141Z,27.21
2023-04-29T09:36:30.034Z,27.26
2023-04-29T09:37:29.949Z,27.26
2023-04-29T09:38:29.844Z,27.29
2023-04-29T09:39:29.725Z,27.32
2023-04-29T09:40:29.619Z,27.36
2023-04-29T09:41:29.518Z,27.36
2023-04-29T09:42:29.409Z,27.37
2023-04-29T09:43:29.303Z,27.42
2023-04-29T09:44:31.309Z,27.43
2023-04-29T09:45:29.063Z,27.43
2023-04-29T09:46:28.972Z,27.43
2023-04-29T09:47:28.832Z,27.50
2023-04-29T09:48:28.700Z,27.54
2023-04-29T09:49:28.584Z,27.56
2023-04-29T09:50:28.461Z,27.58
2023-04-29T09:51:28.341Z,27.61
2023-04-29T09:52:28.201Z,27.58
2023-04-29T09:53:28.097Z,27.58
2023-04-29T09:54:27.985Z,27.60
2023-04-29T09:55:27.876Z,27.60
2023-04-29T09:56:27.742Z,27.56
2023-04-29T09:57:27.627Z,27.54
2023-04-29T09:58:27.521Z,27.56
2023-04-29T09:59:27.408Z,27.56
2023-04-29T10:00:27.268Z,27.58
2023-04-29T10:01:27.199Z,27.57
2023-04-29T10:02:27.085Z,27.61
2023-04-29T10:03:26.996Z,27.65
2023-04-29T10:04:26.831Z,27.68
2023-04-29T10:05:26.685Z,27.72
2023-04-29T10:06:26.578Z,27.75
2023-04-29T10:07:26.447Z,27.77
2023-04-29T10:08:26.358Z,27.85
2023-04-29T10:09:26.237Z,27.81
2023-04-29T10:10:26.099Z,27.83
2023-04-29T10:11:25.991Z,27.83
2023-04-29T10:12:25.874Z,27.80
2023-04-29T10:13:25.757Z,27.84
2023-04-29T10:14:25.643Z,27.81
2023-04-29T10:15:25.530Z,27.88
2023-04-29T10:16:25.497Z,27.88
2023-04-29T10:17:25.290Z,27.91
2023-04-29T10:18:25.248Z,27.91
2023-04-29T10:19:25.062Z,27.92
2023-04-29T10:20:24.949Z,27.92
2023-04-29T10:21:24.828Z,27.94
2023-04-29T10:22:24.705Z,27.95
2023-04-29T10:23:24.602Z,27.96
2023-04-29T10:24:24.484Z,27.96
2023-04-29T10:25:24.358Z,27.99
2023-04-29T10:26:24.242Z,28.01
2023-04-29T10:27:25.401Z,27.99
2023-04-29T10:28:24.080Z,27.99
2023-04-29T10:29:23.998Z,27.98
2023-04-29T10:30:23.891Z,27.98
2023-04-29T10:31:23.813Z,27.95
2023-04-29T10:32:23.713Z,27.98
2023-04-29T10:33:23.687Z,27.95
2023-04-29T10:34:23.516Z,28.01
2023-04-29T10:35:23.715Z,27.94
2023-04-29T10:36:23.348Z,27.95
2023-04-29T10:37:23.285Z,27.96
2023-04-29T10:38:23.169Z,27.94
2023-04-29T10:39:23.070Z,27.92
2023-04-29T10:40:22.982Z,27.91
2023-04-29T10:41:22.907Z,27.92
2023-04-29T10:42:22.792Z,27.91
2023-04-29T10:43:22.730Z,27.92
2023-04-29T10:44:22.609Z,27.92
2023-04-29T10:45:22.527Z,27.91
2023-04-29T10:46:22.451Z,27.94
2023-04-29T10:47:22.396Z,28.01
2023-04-29T10:48:22.256Z,27.99
2023-04-29T10:49:24.827Z,28.02
2023-04-29T10:50:22.043Z,28.03
2023-04-29T10:51:21.930Z,28.05
2023-04-29T10:52:21.807Z,28.08
2023-04-29T10:53:21.710Z,28.08
2023-04-29T10:54:21.580Z,28.13
2023-04-29T10:55:21.481Z,28.13
2023-04-29T10:56:21.345Z,28.13
2023-04-29T10:57:21.246Z,28.15
2023-04-29T10:58:21.156Z,28.16
2023-04-29T10:59:21.001Z,28.16
2023-04-29T11:00:20.878Z,28.19
2023-04-29T11:01:20.819Z,28.19
2023-04-29T11:02:20.670Z,28.18
2023-04-29T11:03:20.675Z,28.19
2023-04-29T11:04:20.432Z,28.16
2023-04-29T11:05:20.281Z,28.15
2023-04-29T11:06:20.247Z,28.15
2023-04-29T11:07:20.129Z,28.12
2023-04-29T11:08:20.032Z,28.13
2023-04-29T11:09:19.946Z,28.15
2023-04-29T11:10:19.820Z,28.11
2023-04-29T11:11:19.723Z,28.16
2023-04-29T11:12:19.676Z,28.16
2023-04-29T11:13:19.635Z,28.18
2023-04-29T11:14:19.546Z,28.19
2023-04-29T11:15:19.419Z,28.22
2023-04-29T11:16:19.334Z,28.22
2023-04-29T11:17:19.224Z,28.24
2023-04-29T11:18:19.279Z,28.29
2023-04-29T11:19:19.188Z,28.29
2023-04-29T11:20:19.167Z,28.26
2023-04-29T11:21:19.165Z,28.26
2023-04-29T11:22:19.040Z,28.26
2023-04-29T11:23:18.937Z,28.29
2023-04-29T11:24:18.816Z,28.30
2023-04-29T11:25:18.709Z,28.29
2023-04-29T11:26:18.615Z,28.33
2023-04-29T11:27:18.581Z,28.30
2023-04-29T11:28:18.563Z,28.33
2023-04-29T11:29:18.548Z,28.32
2023-04-29T11:30:18.450Z,28.30
2023-04-29T11:31:18.349Z,28.35
2023-04-29T11:32:18.239Z,28.36
2023-04-29T11:33:18.172Z,28.35
2023-04-29T11:34:18.008Z,28.37
2023-04-29T11:35:17.938Z,28.35
2023-04-29T11:36:17.791Z,28.36
2023-04-29T11:37:17.714Z,28.35
2023-04-29T11:38:17.596Z,28.35
2023-04-29T11:39:17.471Z,28.35
2023-04-29T11:40:17.383Z,28.37
2023-04-29T11:41:17.268Z,28.37
2023-04-29T11:42:17.240Z,28.40
2023-04-29T11:43:17.216Z,28.39
2023-04-29T11:44:17.174Z,28.40
2023-04-29T11:45:17.142Z,28.40
2023-04-29T11:46:17.049Z,28.39
2023-04-29T11:47:16.905Z,28.42
2023-04-29T11:48:16.766Z,28.39
2023-04-29T11:49:16.668Z,28.42
2023-04-29T11:50:16.547Z,28.42
2023-04-29T11:51:16.454Z,28.43
2023-04-29T11:52:16.508Z,28.44
2023-04-29T11:53:16.389Z,28.46
2023-04-29T11:54:16.264Z,28.43
2023-04-29T11:55:16.181Z,28.44
2023-04-29T11:56:16.145Z,28.40
2023-04-29T11:57:16.067Z,28.44
2023-04-29T11:58:15.983Z,28.39
2023-04-29T11:59:15.917Z,28.39
2023-04-29T12:00:15.828Z,28.37
2023-04-29T12:01:15.770Z,28.37
2023-04-29T12:02:15.651Z,28.36
2023-04-29T12:03:15.708Z,28.33
2023-04-29T12:04:15.821Z,28.37
2023-04-29T12:05:15.657Z,28.36
2023-04-29T12:06:15.236Z,28.36
2023-04-29T12:07:15.144Z,28.37
2023-04-29T12:08:15.057Z,28.37
2023-04-29T12:09:14.910Z,28.35
2023-04-29T12:10:14.826Z,28.42
2023-04-29T12:11:14.658Z,28.42
2023-04-29T12:12:14.646Z,28.40
2023-04-29T12:13:14.621Z,28.42
2023-04-29T12:14:14.572Z,28.44
2023-04-29T12:15:14.569Z,28.47
2023-04-29T12:16:14.515Z,28.50
2023-04-29T12:17:14.356Z,28.51
2023-04-29T12:18:14.241Z,28.54
2023-04-29T12:19:14.149Z,28.57
2023-04-29T12:20:14.050Z,28.56
2023-04-29T12:21:13.913Z,28.58
2023-04-29T12:22:13.781Z,28.54
2023-04-29T12:23:13.724Z,28.57
2023-04-29T12:24:13.825Z,28.58
2023-04-29T12:25:13.661Z,28.56
2023-04-29T12:26:13.604Z,28.54
2023-04-29T12:27:13.577Z,28.56
2023-04-29T12:28:13.544Z,28.54
2023-04-29T12:29:13.425Z,28.54
2023-04-29T12:30:13.341Z,28.50
2023-04-29T12:31:13.239Z,28.56
2023-04-29T12:32:13.056Z,28.54
2023-04-29T12:33:12.971Z,28.51
2023-04-29T12:34:12.837Z,28.56
2023-04-29T12:35:12.703Z,28.54
2023-04-29T12:36:12.573Z,28.56
2023-04-29T12:37:12.482Z,28.56
2023-04-29T12:38:12.349Z,28.57
2023-04-29T12:39:12.218Z,28.57
2023-04-29T12:40:12.093Z,28.54
2023-04-29T12:41:11.981Z,28.54
2023-04-29T12:42:11.950Z,28.58
2023-04-29T12:43:11.936Z,28.58
2023-04-29T12:44:11.865Z,28.54
2023-04-29T12:45:11.706Z,28.57
2023-04-29T12:46:11.631Z,28.57
2023-04-29T12:47:11.701Z,28.60
2023-04-29T12:48:22.228Z,28.61
2023-04-29T12:49:12.274Z,28.64
2023-04-29T12:50:11.182Z,28.65
2023-04-29T12:51:11.026Z,28.70